Terminal Aerodrome Forecast
Issued by NWS Tampa Bay Area, FL

Home | Current Version | Previous Version | Text Only | Print | Product List | Glossary On
Versions: 1 2 3 4 5 6 7 8 9 10 11 12 13 14
000
FTUS42 KTBW 181720
TAFFMY
TAF
KFMY 181720Z 1818/1918 06008G18KT P6SM SCT025 BKN100
      TEMPO 1818/1821 BKN025
     FM190100 06009KT P6SM FEW040 BKN250
     FM190800 04005KT P6SM SCT010 SCT250=

USA.gov is the U.S. government's official web portal to all federal, state and local government web resources and services.